Time;durP1;ratioP1;P1;durP2;ratioP2;P2;SDS_P1;SDS_P2;PMS_P1;PMS_P2;Temp;Humidity;BMP_temperature;BMP_pressure;BME280_temperature;BME280_humidity;BME280_pressure;Samples;Min_cycle;Max_cycle;Signal;HPM_P1;HPM_P2
2023/12/04 00:01:26;;;;;;;;;;;;;;;7.02;68.40;99748.72;7358301;19;19918;-62
2023/12/04 00:03:52;;;;;;;;;;;;;;;7.01;68.42;99744.44;7365877;19;19929;-62
2023/12/04 00:06:18;;;;;;;;;;;;;;;7.02;68.44;99748.72;7365323;19;19926;-62
2023/12/04 00:08:43;;;;;;;;;;;;;;;7.01;68.36;99749.63;7363392;19;19922;-62
2023/12/04 00:11:08;;;;;;;;;;;;;;;7.00;68.19;99747.91;7360508;19;19914;-62
2023/12/04 00:13:34;;;;;;;;;;;;;;;7.00;68.55;99745.31;7361467;19;19940;-62
2023/12/04 00:15:59;;;;;;;;;;;;;;;6.99;68.27;99742.75;7363956;19;19926;-62
2023/12/04 00:18:25;;;;;;;;;;;;;;;6.99;68.40;99737.56;7363996;19;20785;-62
2023/12/04 00:20:50;;;;;;;;;;;;;;;6.99;68.30;99741.03;7364610;19;19919;-62
2023/12/04 00:23:15;;;;;;;;;;;;;;;7.00;68.44;99726.31;7361860;19;19923;-63
2023/12/04 00:25:41;;;;;;;;;;;;;;;6.99;68.32;99730.66;7363018;19;19936;-62
2023/12/04 00:28:06;;;;;;;;;;;;;;;6.98;68.40;99723.72;7361601;19;19918;-62
2023/12/04 00:30:31;;;;;;;;;;;;;;;6.99;68.26;99719.38;7364041;19;19918;-62
2023/12/04 00:32:57;;;;;;;;;;;;;;;6.99;68.00;99717.66;7358743;19;20505;-62
2023/12/04 00:35:22;;;;;;;;;;;;;;;7.00;68.20;99723.72;7371497;19;20006;-61
2023/12/04 00:37:47;;;;;;;;;;;;;;;6.99;68.47;99712.47;7357764;19;19927;-62
2023/12/04 00:40:12;;;;;;;;;;;;;;;7.01;68.33;99726.25;7365100;19;19919;-62
2023/12/04 00:42:37;;;;;;;;;;;;;;;7.01;68.41;99715.03;7366688;19;19933;-62
2023/12/04 00:45:03;;;;;;;;;;;;;;;7.01;68.05;99702.06;7360898;19;20335;-62
2023/12/04 00:47:28;;;;;;;;;;;;;;;7.02;67.95;99704.59;7364610;19;20378;-62
2023/12/04 00:49:54;;;;;;;;;;;;;;;7.02;68.41;99691.63;7369477;19;19931;-62
2023/12/04 00:52:19;;;;;;;;;;;;;;;7.03;68.29;99688.13;7361073;19;19922;-62
2023/12/04 00:54:44;;;;;;;;;;;;;;;7.03;68.03;99682.94;7362651;19;20279;-62
2023/12/04 00:57:09;;;;;;;;;;;;;;;7.06;68.14;99688.97;7362485;19;19930;-62
2023/12/04 00:59:35;;;;;;;;;;;;;;;7.06;68.05;99681.19;7361274;19;19959;-62
2023/12/04 01:02:00;;;;;;;;;;;;;;;7.06;68.24;99687.22;7364669;19;19914;-62
2023/12/04 01:04:26;;;;;;;;;;;;;;;7.08;68.17;99689.75;7360783;19;20599;-62
2023/12/04 01:06:51;;;;;;;;;;;;;;;7.08;67.99;99684.56;7362994;19;19915;-62
2023/12/04 01:09:17;;;;;;;;;;;;;;;6.96;68.51;99660.63;7354811;19;20355;-62
2023/12/04 01:11:42;;;;;;;;;;;;;;;7.10;67.90;99682.81;7360092;19;19930;-62
2023/12/04 01:14:07;;;;;;;;;;;;;;;7.09;67.98;99675.88;7360100;19;19914;-62
2023/12/04 01:16:33;;;;;;;;;;;;;;;7.10;68.16;99675.03;7361386;19;19988;-62
2023/12/04 01:18:58;;;;;;;;;;;;;;;7.09;68.14;99671.53;7363950;19;19919;-62
2023/12/04 01:21:23;;;;;;;;;;;;;;;7.09;68.03;99675.88;7360831;19;19919;-62
2023/12/04 01:23:48;;;;;;;;;;;;;;;7.10;68.10;99672.44;7362426;19;19931;-62
2023/12/04 01:26:14;;;;;;;;;;;;;;;7.09;68.36;99668.09;7358674;19;19915;-62
2023/12/04 01:28:39;;;;;;;;;;;;;;;7.09;67.97;99657.72;7364449;19;19907;-62
2023/12/04 01:31:04;;;;;;;;;;;;;;;7.09;68.23;99665.50;7349626;19;20685;-62
2023/12/04 01:33:30;;;;;;;;;;;;;;;7.08;68.17;99659.47;7361032;19;19915;-62
2023/12/04 01:35:55;;;;;;;;;;;;;;;7.08;68.14;99661.22;7365506;19;19936;-61
2023/12/04 01:38:20;;;;;;;;;;;;;;;7.08;68.52;99658.63;7362835;19;19922;-62
2023/12/04 01:40:46;;;;;;;;;;;;;;;7.07;68.39;99656.91;7358129;19;19915;-62
2023/12/04 01:43:11;;;;;;;;;;;;;;;7.07;68.48;99646.53;7363286;19;20030;-62
2023/12/04 01:45:36;;;;;;;;;;;;;;;7.08;68.26;99650.81;7352077;19;19911;-62
2023/12/04 01:48:02;;;;;;;;;;;;;;;7.07;68.41;99651.72;7370053;19;20022;-62
2023/12/04 01:50:27;;;;;;;;;;;;;;;7.08;68.29;99649.09;7365531;19;20548;-62
2023/12/04 01:52:53;;;;;;;;;;;;;;;7.09;68.38;99642.13;7367737;19;19926;-61
2023/12/04 01:55:19;;;;;;;;;;;;;;;7.09;68.28;99644.75;7363369;19;19921;-62
2023/12/04 01:57:45;;;;;;;;;;;;;;;7.07;68.02;99642.19;7354167;19;20001;-62
2023/12/04 02:00:12;;;;;;;;;;;;;;;7.08;68.52;99643.03;7356308;19;20333;-62
2023/12/04 02:02:38;;;;;;;;;;;;;;;7.07;68.21;99647.38;7358022;19;19918;-61
2023/12/04 02:05:05;;;;;;;;;;;;;;;7.08;68.24;99645.63;7359866;19;19935;-62
2023/12/04 02:07:31;;;;;;;;;;;;;;;7.08;68.26;99640.44;7351292;19;20782;-61
2023/12/04 02:09:56;;;;;;;;;;;;;;;7.08;68.43;99643.03;7362942;19;19923;-62
2023/12/04 02:12:21;;;;;;;;;;;;;;;7.07;68.17;99649.97;7359595;19;19919;-62
2023/12/04 02:14:47;;;;;;;;;;;;;;;7.07;68.16;99646.53;7362123;19;19935;-62
2023/12/04 02:17:12;;;;;;;;;;;;;;;7.06;68.34;99647.44;7351686;19;20731;-62
2023/12/04 02:19:38;;;;;;;;;;;;;;;7.06;68.24;99642.25;7359246;19;20292;-62
2023/12/04 02:22:03;;;;;;;;;;;;;;;7.03;68.35;99640.56;7356220;19;19923;-62
2023/12/04 02:24:28;;;;;;;;;;;;;;;7.00;68.34;99641.50;7366721;19;19942;-61
2023/12/04 02:26:59;;;;;;;;;;;;;;;6.98;68.07;99640.66;7356263;19;19922;-62
2023/12/04 02:29:31;;;;;;;;;;;;;;;6.94;67.95;99641.63;7360712;19;19923;-61
2023/12/04 02:31:57;;;;;;;;;;;;;;;6.92;68.10;99637.38;7355600;19;19922;-62
2023/12/04 02:34:23;;;;;;;;;;;;;;;6.90;67.88;99645.22;7359542;19;19938;-62
2023/12/04 02:36:48;;;;;;;;;;;;;;;6.86;68.31;99643.59;7354478;19;19922;-61
2023/12/04 02:39:14;;;;;;;;;;;;;;;6.83;68.19;99635.00;7359030;19;19911;-62
2023/12/04 02:41:39;;;;;;;;;;;;;;;6.80;68.04;99640.28;7360053;19;19925;-62
2023/12/04 02:44:04;;;;;;;;;;;;;;;6.78;67.86;99648.09;7348400;19;20768;-62
2023/12/04 02:46:29;;;;;;;;;;;;;;;6.76;68.16;99647.28;7360080;19;19946;-62
2023/12/04 02:48:55;;;;;;;;;;;;;;;6.73;68.09;99642.16;7360700;19;19915;-62
2023/12/04 02:51:20;;;;;;;;;;;;;;;6.72;67.96;99648.25;7361502;19;20339;-62
2023/12/04 02:53:48;;;;;;;;;;;;;;;6.70;68.08;99642.25;7356773;19;19923;-62
2023/12/04 02:56:13;;;;;;;;;;;;;;;6.69;67.93;99650.91;7354629;19;19946;-63
2023/12/04 02:58:39;;;;;;;;;;;;;;;6.68;68.11;99649.19;7355919;19;19923;-62
2023/12/04 03:01:04;;;;;;;;;;;;;;;6.66;68.38;99640.63;7361582;19;20656;-61
2023/12/04 03:03:29;;;;;;;;;;;;;;;6.66;68.42;99635.44;7369431;19;20390;-62
2023/12/04 03:05:55;;;;;;;;;;;;;;;6.67;68.05;99637.13;7354302;19;20401;-63
2023/12/04 03:08:20;;;;;;;;;;;;;;;6.65;68.14;99641.50;7371563;19;19923;-62
2023/12/04 03:10:45;;;;;;;;;;;;;;;6.66;68.47;99640.63;7369282;19;20278;-62
2023/12/04 03:13:10;;;;;;;;;;;;;;;6.65;68.39;99633.72;7369691;19;19923;-62
2023/12/04 03:15:36;;;;;;;;;;;;;;;6.65;68.46;99636.31;7373191;19;20143;-62
2023/12/04 03:18:02;;;;;;;;;;;;;;;6.65;68.26;99647.53;7367216;19;19919;-62
2023/12/04 03:20:27;;;;;;;;;;;;;;;6.65;68.12;99654.47;7371239;19;19934;-62
2023/12/04 03:22:52;;;;;;;;;;;;;;;6.64;68.50;99642.38;7369760;19;19927;-62
2023/12/04 03:25:17;;;;;;;;;;;;;;;6.63;68.18;99641.53;7369982;19;19915;-62
2023/12/04 03:27:43;;;;;;;;;;;;;;;6.63;68.06;99638.06;7367628;19;19918;-62
2023/12/04 03:30:08;;;;;;;;;;;;;;;6.63;68.25;99640.69;7364262;19;19926;-62
2023/12/04 03:32:33;;;;;;;;;;;;;;;6.63;68.32;99632.88;7369926;19;19930;-62
2023/12/04 03:34:59;;;;;;;;;;;;;;;6.61;67.94;99632.94;7367469;19;19922;-62
2023/12/04 03:37:24;;;;;;;;;;;;;;;6.61;68.41;99629.50;7365998;19;19922;-61
2023/12/04 03:39:50;;;;;;;;;;;;;;;6.61;68.03;99626.91;7368141;19;20343;-62
2023/12/04 03:42:15;;;;;;;;;;;;;;;6.60;68.21;99625.19;7364525;19;19926;-62
2023/12/04 03:44:40;;;;;;;;;;;;;;;6.58;67.86;99621.78;7364669;19;19938;-62
2023/12/04 03:47:06;;;;;;;;;;;;;;;6.57;68.47;99630.44;7367855;19;19921;-62
2023/12/04 03:49:31;;;;;;;;;;;;;;;6.57;68.46;99627.84;7366580;19;19918;-63
2023/12/04 03:51:56;;;;;;;;;;;;;;;6.55;68.21;99625.31;7365769;19;19929;-62
2023/12/04 03:54:22;;;;;;;;;;;;;;;6.54;68.12;99618.41;7363569;19;20267;-62
2023/12/04 03:56:47;;;;;;;;;;;;;;;6.53;67.96;99621.03;7363881;19;19982;-62
2023/12/04 03:59:12;;;;;;;;;;;;;;;6.52;68.15;99614.16;7367129;19;19918;-62
2023/12/04 04:01:37;;;;;;;;;;;;;;;6.50;67.94;99611.59;7366372;19;19919;-62
2023/12/04 04:04:03;;;;;;;;;;;;;;;6.48;67.94;99611.59;7367072;19;19940;-62
2023/12/04 04:06:28;;;;;;;;;;;;;;;6.47;68.11;99609.91;7368376;19;19938;-62
2023/12/04 04:08:53;;;;;;;;;;;;;;;6.46;68.26;99609.97;7368795;19;19926;-62
2023/12/04 04:11:18;;;;;;;;;;;;;;;6.45;68.04;99609.09;7361643;19;19995;-62
2023/12/04 04:13:44;;;;;;;;;;;;;;;6.44;67.75;99615.19;7363160;19;20446;-62
2023/12/04 04:16:14;;;;;;;;;;;;;;;6.43;68.20;99603.09;7368753;19;19931;-63
2023/12/04 04:18:39;;;;;;;;;;;;;;;6.41;68.05;99604.88;7338630;19;19926;-62
2023/12/04 04:21:04;;;;;;;;;;;;;;;6.40;68.01;99599.72;7363911;19;19939;-62
2023/12/04 04:23:30;;;;;;;;;;;;;;;6.39;67.82;99606.66;7361242;19;19923;-62
2023/12/04 04:25:55;;;;;;;;;;;;;;;6.37;67.76;99603.22;7365448;19;19923;-64
2023/12/04 04:28:20;;;;;;;;;;;;;;;6.37;67.97;99602.38;7364969;19;19925;-62
2023/12/04 04:30:46;;;;;;;;;;;;;;;6.35;67.71;99599.84;7360975;19;19919;-62
2023/12/04 04:33:11;;;;;;;;;;;;;;;6.34;67.81;99599.88;7368486;19;19918;-62
2023/12/04 04:35:36;;;;;;;;;;;;;;;6.32;67.69;99609.41;7366009;19;19986;-61
2023/12/04 04:38:01;;;;;;;;;;;;;;;6.30;68.10;99611.19;7366691;19;20007;-62
2023/12/04 04:40:27;;;;;;;;;;;;;;;6.27;67.88;99606.06;7361553;19;19918;-62
2023/12/04 04:42:52;;;;;;;;;;;;;;;6.26;67.73;99609.56;7366217;19;19918;-62
2023/12/04 04:45:17;;;;;;;;;;;;;;;6.23;68.04;99606.16;7375573;19;19925;-62
2023/12/04 04:47:42;;;;;;;;;;;;;;;6.22;68.12;99599.25;7364681;19;19978;-62
2023/12/04 04:50:08;;;;;;;;;;;;;;;6.20;67.91;99595.84;7354113;19;19922;-62
2023/12/04 04:52:33;;;;;;;;;;;;;;;6.20;67.97;99600.19;7360358;19;19941;-62
2023/12/04 04:54:58;;;;;;;;;;;;;;;6.18;68.11;99601.94;7367172;19;19918;-61
2023/12/04 04:57:24;;;;;;;;;;;;;;;6.18;68.03;99599.34;7366404;19;19948;-62
2023/12/04 04:59:49;;;;;;;;;;;;;;;6.16;67.84;99608.91;7365471;19;20258;-62
2023/12/04 05:02:14;;;;;;;;;;;;;;;6.09;67.59;99600.44;7362304;19;19998;-62
2023/12/04 05:04:39;;;;;;;;;;;;;;;6.13;68.03;99608.97;7366803;19;19936;-62
2023/12/04 05:07:05;;;;;;;;;;;;;;;6.12;67.97;99607.28;7364697;19;19919;-62
2023/12/04 05:09:30;;;;;;;;;;;;;;;6.10;67.74;99609.06;7364591;19;20328;-61
2023/12/04 05:11:55;;;;;;;;;;;;;;;6.04;67.99;99609.19;7372129;19;19934;-62
2023/12/04 05:14:20;;;;;;;;;;;;;;;6.09;67.84;99607.34;7365718;19;19915;-62
2023/12/04 05:16:46;;;;;;;;;;;;;;;6.08;68.20;99608.22;7366021;19;19919;-63
2023/12/04 05:19:11;;;;;;;;;;;;;;;6.06;68.04;99604.81;7364009;19;19982;-62
2023/12/04 05:21:36;;;;;;;;;;;;;;;6.05;67.99;99603.13;7365775;19;19942;-62
2023/12/04 05:24:01;;;;;;;;;;;;;;;6.02;68.06;99595.41;7362961;19;19915;-62
2023/12/04 05:26:27;;;;;;;;;;;;;;;6.02;67.63;99608.34;7366317;19;19948;-62
2023/12/04 05:28:52;;;;;;;;;;;;;;;6.00;67.85;99612.72;7356554;19;19918;-61
2023/12/04 05:31:17;;;;;;;;;;;;;;;5.98;68.02;99611.03;7365620;19;20311;-62
2023/12/04 05:33:43;;;;;;;;;;;;;;;5.97;67.91;99611.91;7366019;19;19915;-62
2023/12/04 05:36:09;;;;;;;;;;;;;;;5.97;67.65;99609.31;7363765;19;19949;-62
2023/12/04 05:38:34;;;;;;;;;;;;;;;5.95;67.79;99605.91;7365284;19;19982;-62
2023/12/04 05:41:00;;;;;;;;;;;;;;;5.94;67.75;99604.22;7357426;19;19991;-62
2023/12/04 05:43:25;;;;;;;;;;;;;;;5.95;67.99;99611.09;7366066;19;19918;-61
2023/12/04 05:45:50;;;;;;;;;;;;;;;5.94;67.96;99611.97;7358471;19;20703;-62
2023/12/04 05:48:15;;;;;;;;;;;;;;;5.94;67.69;99619.75;7364190;19;19938;-62
2023/12/04 05:50:41;;;;;;;;;;;;;;;5.93;67.67;99611.97;7363343;19;19923;-62
2023/12/04 05:53:07;;;;;;;;;;;;;;;5.91;67.55;99619.81;7362946;19;19907;-62
2023/12/04 05:55:32;;;;;;;;;;;;;;;5.89;67.55;99608.59;7359761;19;19921;-62
2023/12/04 05:57:57;;;;;;;;;;;;;;;5.86;67.68;99616.44;7363347;19;19911;-62
2023/12/04 06:00:23;;;;;;;;;;;;;;;5.85;67.81;99625.09;7351199;19;19930;-62
2023/12/04 06:02:48;;;;;;;;;;;;;;;5.83;67.52;99615.63;7360429;19;19911;-62
2023/12/04 06:05:13;;;;;;;;;;;;;;;5.80;67.65;99621.75;7362373;19;19925;-62
2023/12/04 06:07:38;;;;;;;;;;;;;;;5.79;67.77;99624.38;7360559;19;19931;-62
2023/12/04 06:10:04;;;;;;;;;;;;;;;5.76;67.97;99625.28;7361096;19;19923;-63
2023/12/04 06:12:30;;;;;;;;;;;;;;;5.75;67.49;99623.56;7357855;19;19910;-62
2023/12/04 06:14:55;;;;;;;;;;;;;;;5.72;67.97;99628.78;7364605;19;19923;-62
2023/12/04 06:17:20;;;;;;;;;;;;;;;5.70;67.78;99622.81;7356896;19;20446;-62
2023/12/04 06:19:46;;;;;;;;;;;;;;;5.68;67.46;99627.19;7364319;19;19943;-62
2023/12/04 06:22:11;;;;;;;;;;;;;;;5.66;67.87;99623.75;7360112;19;19922;-62
2023/12/04 06:24:37;;;;;;;;;;;;;;;5.65;67.56;99627.22;7361623;19;19935;-62
2023/12/04 06:27:04;;;;;;;;;;;;;;;5.65;67.91;99624.63;7360751;19;19910;-62
2023/12/04 06:29:30;;;;;;;;;;;;;;;5.63;67.81;99629.00;7362301;19;19926;-62
2023/12/04 06:31:55;;;;;;;;;;;;;;;5.63;67.77;99636.78;7362342;19;20434;-62
2023/12/04 06:34:21;;;;;;;;;;;;;;;5.62;67.99;99635.03;7362954;19;19923;-62
2023/12/04 06:36:46;;;;;;;;;;;;;;;5.61;67.92;99635.94;7371795;19;19919;-62
2023/12/04 06:39:12;;;;;;;;;;;;;;;5.61;67.88;99638.53;7371669;19;19982;-62
2023/12/04 06:41:41;;;;;;;;;;;;;;;5.61;67.94;99635.94;7371771;19;19922;-62
2023/12/04 06:44:06;;;;;;;;;;;;;;;5.60;67.73;99639.41;7357414;19;19919;-62
2023/12/04 06:46:35;;;;;;;;;;;;;;;5.61;67.83;99635.94;7368212;19;20303;-62
2023/12/04 06:49:00;;;;;;;;;;;;;;;5.61;67.77;99635.94;7373463;19;19911;-62
2023/12/04 06:51:25;;;;;;;;;;;;;;;5.60;67.90;99648.03;7372306;19;20573;-61
2023/12/04 06:53:51;;;;;;;;;;;;;;;5.60;68.13;99644.59;7370226;19;20597;-62
2023/12/04 06:56:16;;;;;;;;;;;;;;;5.61;67.79;99635.94;7371172;19;20172;-62
2023/12/04 06:58:41;;;;;;;;;;;;;;;5.60;68.25;99645.44;7362372;19;19931;-62
2023/12/04 07:01:06;;;;;;;;;;;;;;;5.61;68.29;99644.56;7370895;19;20151;-62
2023/12/04 07:03:32;;;;;;;;;;;;;;;5.61;67.79;99643.72;7367170;19;19919;-62
2023/12/04 07:05:57;;;;;;;;;;;;;;;5.62;67.99;99642.81;7369637;19;20752;-62
2023/12/04 07:08:22;;;;;;;;;;;;;;;5.62;67.74;99654.03;7365818;19;19918;-61
2023/12/04 07:10:47;;;;;;;;;;;;;;;5.60;67.84;99640.25;7368288;19;19914;-62
2023/12/04 07:13:13;;;;;;;;;;;;;;;5.62;67.84;99653.16;7359005;19;20549;-61
2023/12/04 07:15:39;;;;;;;;;;;;;;;5.62;68.24;99659.19;7364881;19;19946;-62
2023/12/04 07:18:04;;;;;;;;;;;;;;;5.62;68.27;99654.03;7370360;19;20363;-62
2023/12/04 07:20:29;;;;;;;;;;;;;;;5.62;68.24;99658.34;7367212;19;19914;-62
2023/12/04 07:22:54;;;;;;;;;;;;;;;5.63;67.88;99654.91;7364928;19;19923;-62
2023/12/04 07:25:20;;;;;;;;;;;;;;;5.62;68.30;99658.34;7366471;19;19926;-63
2023/12/04 07:27:46;;;;;;;;;;;;;;;5.61;68.11;99657.50;7365445;19;19926;-62
2023/12/04 07:30:12;;;;;;;;;;;;;;;5.62;68.01;99658.34;7367315;19;19923;-62
2023/12/04 07:32:37;;;;;;;;;;;;;;;5.62;67.93;99660.94;7367307;19;19929;-62
2023/12/04 07:35:02;;;;;;;;;;;;;;;5.61;68.24;99657.50;7364246;19;19933;-62
2023/12/04 07:37:30;;;;;;;;;;;;;;;5.62;67.91;99663.53;7367410;19;19926;-61
2023/12/04 07:39:55;;;;;;;;;;;;;;;5.61;67.97;99667.00;7363172;19;20350;-62
2023/12/04 07:42:20;;;;;;;;;;;;;;;5.59;67.73;99666.19;7367326;19;19986;-62
2023/12/04 07:44:46;;;;;;;;;;;;;;;5.60;68.20;99675.66;7364814;19;19923;-62
2023/12/04 07:47:13;;;;;;;;;;;;;;;5.58;68.05;99669.69;7367839;19;19918;-62
2023/12/04 07:49:38;;;;;;;;;;;;;;;5.57;68.17;99680.91;7369849;19;19943;-62
2023/12/04 07:52:03;;;;;;;;;;;;;;;5.56;68.14;99674.88;7361923;19;20682;-62
2023/12/04 07:54:29;;;;;;;;;;;;;;;5.55;67.88;99677.50;7363748;19;19930;-62
2023/12/04 07:56:54;;;;;;;;;;;;;;;5.53;67.90;99684.44;7364045;19;19914;-62
2023/12/04 07:59:19;;;;;;;;;;;;;;;5.51;67.96;99681.00;7367891;19;20327;-61
2023/12/04 08:01:45;;;;;;;;;;;;;;;5.50;68.21;99684.50;7360638;19;19998;-62
2023/12/04 08:04:10;;;;;;;;;;;;;;;5.47;68.17;99686.28;7374813;19;19943;-61
2023/12/04 08:06:35;;;;;;;;;;;;;;;5.45;67.93;99680.25;7373110;19;19970;-62
2023/12/04 08:09:00;;;;;;;;;;;;;;;5.44;67.86;99688.06;7372851;19;19922;-62
2023/12/04 08:11:26;;;;;;;;;;;;;;;5.42;67.88;99687.19;7365918;19;19948;-62
2023/12/04 08:13:51;;;;;;;;;;;;;;;5.41;67.77;99690.69;7362907;19;19922;-62
2023/12/04 08:16:16;;;;;;;;;;;;;;;5.40;67.93;99694.16;7359386;19;19919;-62
2023/12/04 08:18:41;;;;;;;;;;;;;;;5.38;68.25;99690.75;7368215;19;19929;-62
2023/12/04 08:21:07;;;;;;;;;;;;;;;5.37;68.22;99695.09;7363940;19;19931;-63
2023/12/04 08:23:32;;;;;;;;;;;;;;;5.35;67.89;99702.00;7361484;19;20344;-61
2023/12/04 08:25:58;;;;;;;;;;;;;;;5.33;67.93;99701.19;7360770;19;19922;-62
2023/12/04 08:28:23;;;;;;;;;;;;;;;5.34;67.95;99705.47;7361398;19;19921;-62
2023/12/04 08:30:48;;;;;;;;;;;;;;;5.33;67.89;99701.19;7355009;19;19957;-62
2023/12/04 08:33:14;;;;;;;;;;;;;;;5.32;68.24;99702.06;7365697;19;19953;-62
2023/12/04 08:35:39;;;;;;;;;;;;;;;5.31;67.75;99707.25;7363286;19;19930;-62
2023/12/04 08:38:04;;;;;;;;;;;;;;;5.28;68.08;99710.75;7366585;19;20295;-62
2023/12/04 08:40:29;;;;;;;;;;;;;;;5.28;67.81;99709.91;7355824;19;19933;-62
2023/12/04 08:42:54;;;;;;;;;;;;;;;5.24;68.20;99719.47;7360392;19;19919;-62
2023/12/04 08:45:20;;;;;;;;;;;;;;;5.22;67.83;99710.88;7359424;19;19927;-62
2023/12/04 08:47:45;;;;;;;;;;;;;;;5.21;67.94;99720.34;7365700;19;19919;-62
2023/12/04 08:50:11;;;;;;;;;;;;;;;5.21;68.00;99715.16;7357448;19;19934;-62
2023/12/04 08:52:36;;;;;;;;;;;;;;;5.21;68.17;99719.50;7366217;19;20335;-62
2023/12/04 08:55:01;;;;;;;;;;;;;;;5.20;67.84;99722.97;7336452;19;19915;-62
2023/12/04 08:57:27;;;;;;;;;;;;;;;5.20;68.01;99722.97;7359376;19;20360;-62
2023/12/04 08:59:52;;;;;;;;;;;;;;;5.19;68.36;99721.28;7359652;19;20358;-62
2023/12/04 09:02:17;;;;;;;;;;;;;;;5.19;68.37;99723.84;7364778;19;19928;-62
2023/12/04 09:04:43;;;;;;;;;;;;;;;5.18;68.44;99723.00;7361628;19;20634;-62
2023/12/04 09:07:08;;;;;;;;;;;;;;;5.18;68.01;99725.59;7360368;19;19919;-65
2023/12/04 09:09:34;;;;;;;;;;;;;;;5.19;68.37;99726.44;7361995;19;19922;-62
2023/12/04 09:12:00;;;;;;;;;;;;;;;5.19;68.39;99716.09;7366732;19;20287;-62
2023/12/04 09:14:27;;;;;;;;;;;;;;;5.17;68.17;99718.72;7366775;19;19974;-61
2023/12/04 09:16:52;;;;;;;;;;;;;;;5.16;68.05;99726.47;7362648;19;20022;-62
2023/12/04 09:19:18;;;;;;;;;;;;;;;5.15;68.04;99724.78;7361272;19;20492;-62
2023/12/04 09:21:44;;;;;;;;;;;;;;;5.14;68.36;99723.94;7362449;19;19915;-62
2023/12/04 09:24:09;;;;;;;;;;;;;;;5.12;68.23;99732.56;7359021;19;19939;-62
2023/12/04 09:26:34;;;;;;;;;;;;;;;5.11;68.43;99738.63;7316076;19;19915;-62
2023/12/04 09:29:00;;;;;;;;;;;;;;;5.10;68.07;99736.94;7363331;19;19926;-62
2023/12/04 09:31:25;;;;;;;;;;;;;;;5.08;68.17;99728.34;7364533;19;20536;-62
2023/12/04 09:33:50;;;;;;;;;;;;;;;5.06;67.92;99737.84;7362315;19;19922;-62
2023/12/04 09:36:15;;;;;;;;;;;;;;;5.04;68.01;99737.03;7361525;19;19931;-62
2023/12/04 09:38:41;;;;;;;;;;;;;;;5.02;68.24;99738.78;7365870;19;19925;-62
2023/12/04 09:41:09;;;;;;;;;;;;;;;5.01;68.11;99734.50;7363278;19;19919;-62
2023/12/04 09:43:34;;;;;;;;;;;;;;;5.00;68.38;99736.22;7352581;19;19958;-62
2023/12/04 09:46:00;;;;;;;;;;;;;;;5.01;68.20;99739.66;7358349;19;20547;-62
2023/12/04 09:48:25;;;;;;;;;;;;;;;5.00;68.39;99730.19;7359317;19;19978;-62
2023/12/04 09:50:51;;;;;;;;;;;;;;;5.00;68.21;99735.38;7360660;19;19939;-61
2023/12/04 09:53:17;;;;;;;;;;;;;;;5.01;68.32;99739.66;7361686;19;19922;-62
2023/12/04 09:55:42;;;;;;;;;;;;;;;5.02;68.23;99749.13;7361445;19;19921;-61
2023/12/04 09:58:08;;;;;;;;;;;;;;;5.03;68.61;99743.09;7356873;19;20004;-62
2023/12/04 10:00:34;;;;;;;;;;;;;;;5.03;68.44;99756.88;7357624;19;19914;-62
2023/12/04 10:03:02;;;;;;;;;;;;;;;5.05;68.55;99754.28;7360800;19;19949;-62
2023/12/04 10:05:27;;;;;;;;;;;;;;;5.05;68.51;99746.50;7365746;19;19922;-62
2023/12/04 10:07:52;;;;;;;;;;;;;;;5.06;68.61;99746.47;7339825;19;19950;-62
2023/12/04 10:10:18;;;;;;;;;;;;;;;5.07;68.27;99744.75;7361758;19;19935;-62
2023/12/04 10:12:43;;;;;;;;;;;;;;;5.08;68.80;99759.41;7358857;19;19915;-62
2023/12/04 10:15:12;;;;;;;;;;;;;;;5.09;68.65;99766.28;7360705;19;19935;-62
2023/12/04 10:17:41;;;;;;;;;;;;;;;5.09;68.36;99755.94;7366496;19;20316;-62
2023/12/04 10:20:15;;;;;;;;;;;;;;;5.09;68.28;99766.28;7364513;19;20020;-62
2023/12/04 10:22:57;;;;;;;;;;;;;;;5.11;68.73;99769.69;7356435;19;19938;-62
2023/12/04 10:25:25;;;;;;;;;;;;;;;5.12;68.67;99771.41;7347120;19;19931;-62
2023/12/04 10:27:50;;;;;;;;;;;;;;;5.14;68.73;99780.00;7361364;19;19954;-62
2023/12/04 10:30:22;;;;;;;;;;;;;;;5.16;68.66;99770.47;7359756;19;19986;-62
2023/12/04 10:32:48;;;;;;;;;;;;;;;5.17;68.82;99785.13;7359852;19;19915;-62
2023/12/04 10:35:13;;;;;;;;;;;;;;;5.18;68.75;99777.34;7361693;19;19914;-63
2023/12/04 10:37:38;;;;;;;;;;;;;;;5.20;68.83;99769.56;7350442;19;19914;-61
2023/12/04 10:40:08;;;;;;;;;;;;;;;5.21;68.75;99772.13;7361832;19;19926;-62
2023/12/04 10:42:33;;;;;;;;;;;;;;;5.24;68.92;99766.03;7356993;19;20287;-62
2023/12/04 10:44:59;;;;;;;;;;;;;;;5.27;68.90;99773.78;7359033;19;19914;-62
2023/12/04 10:47:25;;;;;;;;;;;;;;;5.29;68.57;99769.41;7358259;19;19911;-62
2023/12/04 10:49:50;;;;;;;;;;;;;;;5.31;68.76;99771.97;7361765;19;19914;-62
2023/12/04 10:52:16;;;;;;;;;;;;;;;5.33;68.60;99778.84;7357987;19;19922;-62
2023/12/04 10:54:41;;;;;;;;;;;;;;;5.37;68.65;99771.88;7361908;19;20025;-62
2023/12/04 10:57:07;;;;;;;;;;;;;;;5.38;69.01;99773.59;7355335;19;19922;-62
2023/12/04 10:59:36;;;;;;;;;;;;;;;5.40;68.96;99772.69;7361492;19;19946;-62
2023/12/04 11:02:04;;;;;;;;;;;;;;;5.42;68.70;99776.13;7352454;19;20453;-62
2023/12/04 11:04:31;;;;;;;;;;;;;;;5.38;68.94;99764.09;7361553;19;19929;-62
2023/12/04 11:06:59;;;;;;;;;;;;;;;5.47;68.78;99779.47;7358581;19;19936;-62
2023/12/04 11:09:26;;;;;;;;;;;;;;;5.50;68.85;99782.88;7363274;19;19926;-61
2023/12/04 11:11:56;;;;;;;;;;;;;;;5.40;68.82;99761.47;7356290;19;19919;-63
2023/12/04 11:14:22;;;;;;;;;;;;;;;5.55;68.80;99781.94;7359168;19;19923;-62
2023/12/04 11:16:49;;;;;;;;;;;;;;;5.57;69.05;99774.13;7353905;19;19919;-62
2023/12/04 11:19:21;;;;;;;;;;;;;;;5.60;69.02;99784.44;7360750;19;19925;-63
2023/12/04 11:21:47;;;;;;;;;;;;;;;5.62;68.75;99778.34;7356995;19;19915;-62
2023/12/04 11:24:12;;;;;;;;;;;;;;;5.65;68.77;99772.25;7361548;19;19928;-62
2023/12/04 11:26:39;;;;;;;;;;;;;;;5.67;68.54;99771.34;7360776;19;19921;-61
2023/12/04 11:29:05;;;;;;;;;;;;;;;5.69;68.90;99781.69;7361151;19;19986;-61
2023/12/04 11:31:30;;;;;;;;;;;;;;;5.73;68.57;99776.44;7366708;19;20689;-62
2023/12/04 11:34:01;;;;;;;;;;;;;;;5.76;68.83;99775.50;7365790;19;19998;-62
2023/12/04 11:36:27;;;;;;;;;;;;;;;5.80;69.03;99777.19;7365078;19;19927;-62
2023/12/04 11:38:53;;;;;;;;;;;;;;;5.83;68.60;99766.78;7367657;19;19926;-61
2023/12/04 11:41:22;;;;;;;;;;;;;;;5.86;68.60;99766.69;7365967;19;19926;-62
2023/12/04 11:43:47;;;;;;;;;;;;;;;5.89;68.81;99770.97;7354002;19;19930;-62
2023/12/04 11:46:13;;;;;;;;;;;;;;;5.91;68.54;99770.09;7366018;19;20393;-62
2023/12/04 11:48:38;;;;;;;;;;;;;;;5.94;68.59;99771.78;7366776;19;20290;-62
2023/12/04 11:51:07;;;;;;;;;;;;;;;5.96;68.74;99778.63;7368291;19;19978;-62
2023/12/04 11:53:36;;;;;;;;;;;;;;;5.98;68.46;99776.00;7366257;19;20557;-62
2023/12/04 11:56:08;;;;;;;;;;;;;;;6.00;68.38;99773.41;7368401;19;19923;-62
2023/12/04 11:58:41;;;;;;;;;;;;;;;6.03;68.90;99768.13;7363266;19;19929;-61
2023/12/04 12:01:06;;;;;;;;;;;;;;;6.05;68.47;99762.06;7372253;19;19918;-62
2023/12/04 12:03:32;;;;;;;;;;;;;;;6.08;68.84;99766.31;7368482;19;20254;-62
2023/12/04 12:05:57;;;;;;;;;;;;;;;6.10;68.66;99767.16;7365593;19;19915;-62
2023/12/04 12:08:23;;;;;;;;;;;;;;;6.14;68.77;99766.22;7363796;19;19982;-62
2023/12/04 12:10:49;;;;;;;;;;;;;;;6.17;68.56;99768.72;7369350;19;19929;-62
2023/12/04 12:13:15;;;;;;;;;;;;;;;6.21;68.92;99762.59;7363265;19;19915;-62
2023/12/04 12:15:40;;;;;;;;;;;;;;;6.27;68.70;99761.63;7366775;19;19930;-62
2023/12/04 12:18:06;;;;;;;;;;;;;;;6.32;69.14;99765.84;7366195;19;19975;-62
2023/12/04 12:20:31;;;;;;;;;;;;;;;6.36;68.93;99767.47;7365479;19;19922;-62
2023/12/04 12:22:56;;;;;;;;;;;;;;;6.42;68.69;99772.53;7365469;19;19941;-62
2023/12/04 12:25:22;;;;;;;;;;;;;;;6.48;69.32;99781.94;7356700;19;19911;-62
2023/12/04 12:27:48;;;;;;;;;;;;;;;6.54;69.04;99781.81;7356401;19;19927;-62
2023/12/04 12:30:13;;;;;;;;;;;;;;;6.59;69.08;99779.09;7363567;19;19948;-62
2023/12/04 12:32:38;;;;;;;;;;;;;;;6.64;69.02;99787.63;7363261;19;19922;-62
2023/12/04 12:35:04;;;;;;;;;;;;;;;6.69;68.71;99780.63;7363483;19;19954;-62
2023/12/04 12:37:29;;;;;;;;;;;;;;;6.73;68.97;99785.72;7359246;19;19914;-62
2023/12/04 12:39:55;;;;;;;;;;;;;;;6.77;68.59;99789.09;7361239;19;19922;-62
2023/12/04 12:42:24;;;;;;;;;;;;;;;6.80;68.72;99794.22;7358255;19;20006;-62
2023/12/04 12:44:49;;;;;;;;;;;;;;;6.83;68.75;99799.34;7363000;19;20537;-62
2023/12/04 12:47:15;;;;;;;;;;;;;;;6.85;68.70;99792.38;7360193;19;19929;-62
2023/12/04 12:49:40;;;;;;;;;;;;;;;6.88;68.42;99792.31;7366171;19;19922;-63